Time;durP1;ratioP1;P1;durP2;ratioP2;P2;SDS_P1;SDS_P2;PMS_P1;PMS_P2;Temp;Humidity;BMP_temperature;BMP_pressure;BME280_temperature;BME280_humidity;BME280_pressure;Samples;Min_cycle;Max_cycle;Signal;HPM_P1;HPM_P2
2021/07/01 00:01:09;;;;;;;21.63;14.80;;;14.70;99.90;;;;;;5048221;28;20432;-43
2021/07/01 00:03:35;;;;;;;17.87;14.27;;;14.80;99.90;;;;;;5038444;28;20187;-45
2021/07/01 00:06:01;;;;;;;18.30;15.10;;;14.80;99.90;;;;;;5045558;28;20945;-45
2021/07/01 00:08:26;;;;;;;21.00;14.13;;;14.80;99.90;;;;;;5046979;28;20197;-44
2021/07/01 00:10:52;;;;;;;18.43;13.47;;;14.80;99.90;;;;;;5048417;28;20192;-44
2021/07/01 00:13:18;;;;;;;17.00;13.13;;;14.80;99.90;;;;;;5047666;28;20189;-44
2021/07/01 00:15:44;;;;;;;16.20;13.70;;;14.80;99.90;;;;;;5046665;28;20456;-44
2021/07/01 00:18:10;;;;;;;19.00;14.20;;;14.80;99.90;;;;;;5043696;28;20533;-42
2021/07/01 00:20:36;;;;;;;15.23;13.03;;;14.80;99.90;;;;;;5040322;28;20170;-47
2021/07/01 00:23:02;;;;;;;16.47;13.20;;;14.80;99.90;;;;;;5047580;28;20423;-47
2021/07/01 00:25:28;;;;;;;20.60;13.70;;;14.70;99.90;;;;;;5047919;28;20188;-44
2021/07/01 00:27:54;;;;;;;16.93;12.60;;;14.80;99.90;;;;;;5048051;28;20931;-44
2021/07/01 00:30:22;;;;;;;16.83;13.03;;;14.70;99.90;;;;;;5048029;28;20191;-42
2021/07/01 00:32:48;;;;;;;17.10;13.70;;;14.70;99.90;;;;;;5046426;28;20428;-41
2021/07/01 00:35:14;;;;;;;17.13;13.27;;;14.70;99.90;;;;;;5037218;28;20570;-44
2021/07/01 00:37:40;;;;;;;20.93;14.50;;;14.80;99.90;;;;;;5047899;28;21163;-45
2021/07/01 00:40:09;;;;;;;19.87;14.40;;;14.70;99.90;;;;;;5047700;28;20511;-43
2021/07/01 00:42:36;;;;;;;17.63;13.63;;;14.70;99.90;;;;;;5048075;28;20431;-48
2021/07/01 00:45:03;;;;;;;22.20;16.20;;;14.70;99.90;;;;;;5047370;28;20424;-45
2021/07/01 00:47:29;;;;;;;16.33;13.20;;;14.70;99.90;;;;;;5047966;28;20424;-45
2021/07/01 00:49:55;;;;;;;19.80;15.87;;;14.70;99.90;;;;;;5040011;28;20768;-42
2021/07/01 00:52:21;;;;;;;19.50;14.37;;;14.70;99.90;;;;;;5047634;28;20209;-46
2021/07/01 00:54:47;;;;;;;18.20;14.60;;;14.70;99.90;;;;;;5047276;28;21008;-44
2021/07/01 00:57:12;;;;;;;17.80;13.97;;;14.70;99.90;;;;;;5047934;28;20468;-43
2021/07/01 00:59:38;;;;;;;18.10;14.17;;;14.80;99.90;;;;;;5047641;28;21374;-44
2021/07/01 01:02:07;;;;;;;20.67;15.27;;;14.80;99.90;;;;;;5047892;28;20185;-42
2021/07/01 01:04:34;;;;;;;21.50;16.87;;;14.80;99.90;;;;;;5038464;28;20431;-44
2021/07/01 01:07:01;;;;;;;21.47;15.83;;;14.70;99.90;;;;;;5047529;28;20420;-48
2021/07/01 01:09:26;;;;;;;22.90;16.43;;;14.80;99.90;;;;;;5046389;28;20452;-45
2021/07/01 01:11:52;;;;;;;24.50;18.10;;;14.80;99.90;;;;;;5047768;28;20481;-44
2021/07/01 01:14:18;;;;;;;21.40;17.07;;;14.80;99.90;;;;;;5045817;28;20182;-43
2021/07/01 01:16:43;;;;;;;22.00;16.57;;;14.80;99.90;;;;;;5050201;28;20224;-43
2021/07/01 01:19:09;;;;;;;21.93;17.70;;;14.70;99.90;;;;;;5046069;28;20179;-44
2021/07/01 01:21:36;;;;;;;25.77;18.80;;;14.70;99.90;;;;;;5047974;28;20652;-44
2021/07/01 01:24:04;;;;;;;27.70;19.40;;;14.70;99.90;;;;;;5050893;28;20289;-45
2021/07/01 01:26:30;;;;;;;25.47;19.23;;;14.70;99.90;;;;;;5051333;28;20802;-43
2021/07/01 01:28:56;;;;;;;23.30;19.37;;;14.70;99.90;;;;;;5051307;28;20439;-42
2021/07/01 01:31:22;;;;;;;23.60;20.47;;;14.60;99.90;;;;;;5051263;28;20423;-44
2021/07/01 01:33:52;;;;;;;24.30;19.80;;;14.80;99.90;;;;;;5046615;28;20532;-43
2021/07/01 01:36:18;;;;;;;24.60;19.27;;;14.70;99.90;;;;;;5046254;28;20475;-43
2021/07/01 01:38:44;;;;;;;27.67;20.20;;;14.80;99.90;;;;;;5049817;28;21097;-46
2021/07/01 01:41:10;;;;;;;27.70;18.77;;;14.70;99.90;;;;;;5051196;28;20794;-45
2021/07/01 01:43:36;;;;;;;25.80;19.77;;;14.80;99.90;;;;;;5050404;28;20427;-46
2021/07/01 01:46:01;;;;;;;26.10;19.77;;;14.80;99.90;;;;;;5051109;28;20202;-45
2021/07/01 01:48:27;;;;;;;26.67;18.57;;;14.70;99.90;;;;;;5050858;28;20190;-46
2021/07/01 01:50:53;;;;;;;23.60;19.23;;;14.70;99.90;;;;;;5034548;28;20201;-48
2021/07/01 01:53:18;;;;;;;24.43;18.33;;;14.70;99.90;;;;;;5050024;28;20284;-42
2021/07/01 01:55:44;;;;;;;21.90;16.73;;;14.70;99.90;;;;;;5049538;28;20209;-42
2021/07/01 01:58:10;;;;;;;21.60;17.00;;;14.70;99.90;;;;;;5050904;28;20192;-46
2021/07/01 02:00:36;;;;;;;19.23;15.87;;;14.80;99.90;;;;;;5050662;28;20200;-46
2021/07/01 02:03:02;;;;;;;21.87;16.90;;;14.70;99.90;;;;;;5050116;28;20839;-42
2021/07/01 02:05:28;;;;;;;23.50;17.43;;;14.70;99.90;;;;;;5037278;28;20440;-42
2021/07/01 02:07:54;;;;;;;20.30;16.40;;;14.70;99.90;;;;;;5050338;28;20447;-44
2021/07/01 02:10:29;;;;;;;21.50;16.70;;;14.70;99.90;;;;;;5050666;28;20436;-43
2021/07/01 02:12:55;;;;;;;19.43;15.80;;;14.70;99.90;;;;;;5049994;28;20182;-43
2021/07/01 02:15:23;;;;;;;21.23;17.03;;;14.70;99.90;;;;;;5036849;28;20421;-47
2021/07/01 02:17:51;;;;;;;19.63;16.17;;;14.70;99.90;;;;;;5050123;28;20436;-45
2021/07/01 02:20:19;;;;;;;23.97;17.60;;;14.70;99.90;;;;;;5040853;28;20839;-43
2021/07/01 02:22:45;;;;;;;24.70;18.40;;;14.70;99.90;;;;;;5050335;28;20444;-45
2021/07/01 02:25:11;;;;;;;24.87;18.17;;;14.60;99.90;;;;;;5048718;28;20550;-48
2021/07/01 02:27:39;;;;;;;25.03;19.27;;;14.70;99.90;;;;;;5049781;28;20436;-45
2021/07/01 02:30:09;;;;;;;23.93;18.23;;;14.60;99.90;;;;;;5050114;28;20428;-44
2021/07/01 02:32:35;;;;;;;21.63;17.73;;;14.70;99.90;;;;;;5050088;28;20436;-45
2021/07/01 02:35:01;;;;;;;21.73;17.50;;;14.70;99.90;;;;;;5041583;28;20424;-45
2021/07/01 02:37:27;;;;;;;24.33;17.50;;;14.70;99.90;;;;;;5046083;28;20545;-44
2021/07/01 02:39:53;;;;;;;23.67;17.97;;;14.70;99.90;;;;;;5049644;28;20456;-44
2021/07/01 02:42:18;;;;;;;21.43;15.63;;;14.70;99.90;;;;;;5050131;28;20200;-44
2021/07/01 02:44:44;;;;;;;20.00;15.80;;;14.70;99.90;;;;;;5049187;28;20644;-45
2021/07/01 02:47:10;;;;;;;21.93;15.70;;;14.70;99.90;;;;;;5049657;28;20265;-44
2021/07/01 02:49:35;;;;;;;20.40;15.37;;;14.70;99.90;;;;;;5046533;28;20205;-45
2021/07/01 02:52:02;;;;;;;21.87;16.87;;;14.60;99.90;;;;;;5043944;28;20740;-45
2021/07/01 02:54:27;;;;;;;21.67;17.10;;;14.60;99.90;;;;;;5048009;28;20184;-46
2021/07/01 02:56:53;;;;;;;20.00;14.87;;;14.50;99.90;;;;;;5049308;28;20551;-44
2021/07/01 02:59:19;;;;;;;21.50;16.47;;;14.50;99.90;;;;;;5049641;28;20299;-42
2021/07/01 03:01:50;;;;;;;23.47;16.90;;;14.50;99.90;;;;;;5049231;28;20445;-43
2021/07/01 03:04:16;;;;;;;16.10;14.07;;;14.60;99.90;;;;;;5046934;28;20427;-43
2021/07/01 03:06:43;;;;;;;20.73;15.03;;;14.50;99.90;;;;;;5039583;28;20423;-42
2021/07/01 03:09:09;;;;;;;19.40;15.53;;;14.50;99.90;;;;;;5049411;28;20944;-44
2021/07/01 03:11:35;;;;;;;22.23;16.70;;;14.50;99.90;;;;;;5049408;28;20420;-45
2021/07/01 03:14:01;;;;;;;22.53;16.47;;;14.50;99.90;;;;;;5048473;28;21124;-42
2021/07/01 03:16:27;;;;;;;21.53;16.27;;;14.50;99.90;;;;;;5048479;28;20467;-41
2021/07/01 03:18:53;;;;;;;21.20;17.00;;;14.50;99.90;;;;;;5049029;28;20777;-47
2021/07/01 03:21:20;;;;;;;20.63;15.00;;;14.50;99.90;;;;;;5039498;28;20477;-44
2021/07/01 03:23:46;;;;;;;21.77;16.20;;;14.50;99.90;;;;;;5048343;28;20866;-45
2021/07/01 03:26:13;;;;;;;22.27;15.40;;;14.60;99.90;;;;;;5049345;28;20516;-43
2021/07/01 03:28:39;;;;;;;18.90;14.83;;;14.60;99.90;;;;;;5048794;28;20440;-43
2021/07/01 03:31:06;;;;;;;21.60;15.83;;;14.60;99.90;;;;;;5049117;28;20798;-46
2021/07/01 03:33:32;;;;;;;19.17;16.00;;;14.60;99.90;;;;;;5047302;28;20428;-45
2021/07/01 03:35:58;;;;;;;17.53;15.20;;;14.60;99.90;;;;;;5038774;28;20513;-46
2021/07/01 03:38:24;;;;;;;18.40;14.10;;;14.60;99.90;;;;;;5046358;28;20818;-43
2021/07/01 03:40:50;;;;;;;23.73;16.60;;;14.60;99.90;;;;;;5048736;28;20519;-41
2021/07/01 03:43:16;;;;;;;19.23;15.20;;;14.60;99.90;;;;;;5047695;28;20828;-46
2021/07/01 03:45:42;;;;;;;17.87;14.57;;;14.60;99.90;;;;;;5048955;28;20192;-43
2021/07/01 03:48:08;;;;;;;19.70;15.30;;;14.60;99.90;;;;;;5047576;28;20417;-47
2021/07/01 03:50:34;;;;;;;18.90;14.93;;;14.60;99.90;;;;;;5039052;28;20256;-42
2021/07/01 03:52:59;;;;;;;18.40;14.50;;;14.60;99.90;;;;;;5048143;28;20677;-46
2021/07/01 03:55:25;;;;;;;17.43;13.87;;;14.60;99.90;;;;;;5048331;28;20501;-44
2021/07/01 03:57:51;;;;;;;19.50;15.60;;;14.60;99.90;;;;;;5048545;28;20508;-47
2021/07/01 04:00:17;;;;;;;16.00;13.23;;;14.60;99.90;;;;;;5048601;28;20272;-42
2021/07/01 04:02:43;;;;;;;16.20;13.33;;;14.50;99.90;;;;;;5048570;28;20736;-44
2021/07/01 04:05:09;;;;;;;18.13;13.23;;;14.50;99.90;;;;;;5041486;28;20421;-46
2021/07/01 04:07:35;;;;;;;13.80;11.40;;;14.50;99.90;;;;;;5046207;28;20507;-43
2021/07/01 04:10:14;;;;;;;12.17;10.87;;;14.50;99.90;;;;;;5048393;28;21127;-47
2021/07/01 04:12:40;;;;;;;15.87;11.03;;;14.50;99.90;;;;;;5034919;28;20459;-44
2021/07/01 04:15:07;;;;;;;12.17;10.43;;;14.60;99.90;;;;;;5047668;28;20456;-45
2021/07/01 04:17:32;;;;;;;13.93;12.00;;;14.50;99.90;;;;;;5045835;28;20604;-47
2021/07/01 04:19:58;;;;;;;13.90;12.50;;;14.60;99.90;;;;;;5044108;28;20437;-42
2021/07/01 04:22:25;;;;;;;14.00;12.00;;;14.60;99.90;;;;;;5035867;28;20664;-47
2021/07/01 04:24:52;;;;;;;15.57;12.77;;;14.60;99.90;;;;;;5047213;28;20422;-44
2021/07/01 04:27:18;;;;;;;15.10;13.30;;;14.60;99.90;;;;;;5034922;28;20412;-48
2021/07/01 04:29:44;;;;;;;15.50;12.83;;;14.60;99.90;;;;;;5048213;28;20431;-48
2021/07/01 04:32:10;;;;;;;15.43;12.27;;;14.60;99.90;;;;;;5046910;28;20420;-46
2021/07/01 04:34:35;;;;;;;16.20;12.30;;;14.60;99.90;;;;;;5047402;28;20199;-44
2021/07/01 04:37:03;;;;;;;14.70;11.70;;;14.60;99.90;;;;;;5033543;28;20463;-47
2021/07/01 04:39:28;;;;;;;13.80;12.40;;;14.60;99.90;;;;;;5047757;28;20182;-49
2021/07/01 04:41:54;;;;;;;14.30;11.80;;;14.60;99.90;;;;;;5048051;28;20439;-45
2021/07/01 04:44:20;;;;;;;14.87;11.63;;;14.60;99.90;;;;;;5046426;28;20496;-42
2021/07/01 04:46:46;;;;;;;16.43;13.30;;;14.60;99.90;;;;;;5047993;28;20208;-48
2021/07/01 04:49:11;;;;;;;15.80;13.57;;;14.50;99.90;;;;;;5048201;28;20615;-45
2021/07/01 04:51:37;;;;;;;22.13;14.90;;;14.50;99.90;;;;;;5042429;28;20879;-43
2021/07/01 04:54:03;;;;;;;18.33;16.10;;;14.50;99.90;;;;;;5048854;28;20182;-45
2021/07/01 04:56:43;;;;;;;21.37;16.37;;;14.60;99.90;;;;;;5050163;28;20247;-44
2021/07/01 04:59:10;;;;;;;21.20;16.90;;;14.50;99.90;;;;;;5048718;28;20182;-44
2021/07/01 05:01:36;;;;;;;23.20;17.37;;;14.50;99.90;;;;;;5050028;28;20976;-46
2021/07/01 05:04:02;;;;;;;19.37;16.13;;;14.50;99.90;;;;;;5049028;28;20434;-43
2021/07/01 05:06:28;;;;;;;22.87;17.47;;;14.50;99.90;;;;;;5039211;28;20971;-47
2021/07/01 05:08:54;;;;;;;23.47;16.90;;;14.60;99.90;;;;;;5048814;28;20530;-46
2021/07/01 05:11:19;;;;;;;21.83;16.63;;;14.60;99.90;;;;;;5049995;28;20511;-46
2021/07/01 05:13:45;;;;;;;19.10;16.37;;;14.60;99.90;;;;;;5048749;28;20192;-47
2021/07/01 05:16:11;;;;;;;22.40;16.43;;;14.60;99.90;;;;;;5048650;28;20399;-43
2021/07/01 05:18:36;;;;;;;18.87;16.17;;;14.60;99.90;;;;;;5048573;28;20194;-47
2021/07/01 05:21:02;;;;;;;19.43;16.97;;;14.60;99.90;;;;;;5044261;28;20182;-46
2021/07/01 05:23:28;;;;;;;21.40;16.87;;;14.60;99.90;;;;;;5056157;28;20189;-47
2021/07/01 05:25:53;;;;;;;18.70;15.40;;;14.60;99.90;;;;;;5049307;28;20243;-43
2021/07/01 05:28:19;;;;;;;17.80;15.13;;;14.60;99.90;;;;;;5049591;28;20724;-43
2021/07/01 05:30:44;;;;;;;17.73;15.77;;;14.60;99.90;;;;;;5049288;28;20213;-43
2021/07/01 05:33:10;;;;;;;21.43;15.67;;;14.50;99.90;;;;;;5048804;28;20273;-43
2021/07/01 05:35:36;;;;;;;15.20;13.70;;;14.50;99.90;;;;;;5044944;28;20202;-45
2021/07/01 05:38:02;;;;;;;19.20;13.90;;;14.50;99.90;;;;;;5043747;28;20586;-43
2021/07/01 05:40:28;;;;;;;13.20;11.90;;;14.40;99.90;;;;;;5049192;28;20633;-46
2021/07/01 05:42:53;;;;;;;10.97;9.77;;;14.40;99.90;;;;;;5049219;28;20432;-49
2021/07/01 05:45:19;;;;;;;10.43;9.20;;;14.40;99.90;;;;;;5050394;28;20193;-45
2021/07/01 05:47:46;;;;;;;11.77;10.53;;;14.40;99.90;;;;;;5048912;28;20177;-45
2021/07/01 05:50:13;;;;;;;14.93;12.70;;;14.30;99.90;;;;;;5054955;28;20933;-43
2021/07/01 05:52:42;;;;;;;16.13;13.33;;;14.30;99.90;;;;;;5042113;28;20413;-49
2021/07/01 05:55:08;;;;;;;16.30;14.60;;;14.40;99.90;;;;;;5048631;28;20428;-44
2021/07/01 05:57:34;;;;;;;15.53;13.90;;;14.40;99.90;;;;;;5048822;28;20538;-46
2021/07/01 06:00:00;;;;;;;21.07;16.63;;;14.40;99.90;;;;;;5048857;28;20424;-46
2021/07/01 06:02:26;;;;;;;18.50;15.70;;;14.40;99.90;;;;;;5046453;28;20244;-44
2021/07/01 06:04:51;;;;;;;18.67;15.00;;;14.40;99.90;;;;;;5046801;28;20190;-48
2021/07/01 06:07:22;;;;;;;17.47;15.67;;;14.40;99.90;;;;;;5039553;28;20535;-44
2021/07/01 06:09:54;;;;;;;22.60;16.63;;;14.40;99.90;;;;;;5050265;28;20270;-43
2021/07/01 06:12:23;;;;;;;23.00;17.60;;;14.40;99.90;;;;;;5050326;28;20480;-45
2021/07/01 06:14:57;;;;;;;20.90;15.77;;;14.40;99.90;;;;;;5046946;28;20429;-46
2021/07/01 06:17:30;;;;;;;20.20;16.47;;;14.40;99.90;;;;;;5046753;28;20456;-47
2021/07/01 06:19:56;;;;;;;22.93;17.23;;;14.40;99.90;;;;;;5048569;28;20501;-45
2021/07/01 06:22:22;;;;;;;26.00;17.50;;;14.40;99.90;;;;;;5039168;28;20439;-43
2021/07/01 06:24:54;;;;;;;24.60;17.90;;;14.50;99.90;;;;;;5047563;28;20416;-47
2021/07/01 06:27:32;;;;;;;19.87;17.20;;;14.50;99.90;;;;;;5048469;28;20946;-43
2021/07/01 06:29:59;;;;;;;22.70;18.93;;;14.40;99.90;;;;;;5047711;28;20439;-44
2021/07/01 06:32:25;;;;;;;23.90;19.37;;;14.40;99.90;;;;;;5048115;28;20602;-47
2021/07/01 06:34:51;;;;;;;27.00;18.50;;;14.40;99.90;;;;;;5050077;28;20507;-46
2021/07/01 06:37:17;;;;;;;32.07;18.53;;;14.50;99.90;;;;;;5034243;28;20221;-47
2021/07/01 06:39:46;;;;;;;23.53;17.80;;;14.50;99.90;;;;;;5046365;28;20231;-44
2021/07/01 06:42:16;;;;;;;23.60;16.77;;;14.40;99.90;;;;;;5036248;28;20416;-45
2021/07/01 06:44:42;;;;;;;22.87;18.20;;;14.40;99.90;;;;;;5047139;28;20493;-44
2021/07/01 06:47:09;;;;;;;24.33;17.43;;;14.40;99.90;;;;;;5048183;28;20432;-49
2021/07/01 06:49:37;;;;;;;24.53;17.43;;;14.40;99.90;;;;;;5048033;28;20197;-47
2021/07/01 06:52:05;;;;;;;24.23;17.97;;;14.50;99.90;;;;;;5037269;28;20472;-47
2021/07/01 06:54:31;;;;;;;31.53;18.80;;;14.40;99.90;;;;;;5057455;28;20420;-44
2021/07/01 06:56:58;;;;;;;24.97;21.10;;;14.40;99.90;;;;;;5047530;28;20448;-46
2021/07/01 06:59:24;;;;;;;26.33;21.10;;;14.40;99.90;;;;;;5047818;28;20456;-45
2021/07/01 07:01:50;;;;;;;26.43;19.23;;;14.40;99.90;;;;;;5047870;28;20446;-45
2021/07/01 07:04:17;;;;;;;25.10;18.63;;;14.40;99.90;;;;;;5047023;28;20782;-47
2021/07/01 07:06:44;;;;;;;20.33;18.17;;;14.40;99.90;;;;;;5040164;28;20433;-42
2021/07/01 07:09:12;;;;;;;24.47;18.70;;;14.40;99.90;;;;;;5043894;28;20531;-46
2021/07/01 07:11:37;;;;;;;25.63;17.93;;;14.40;99.90;;;;;;5047161;28;20841;-48
2021/07/01 07:14:04;;;;;;;25.50;17.30;;;14.40;99.90;;;;;;5042346;28;20421;-45
2021/07/01 07:16:31;;;;;;;18.13;15.53;;;14.40;99.90;;;;;;5045229;28;20608;-47
2021/07/01 07:18:59;;;;;;;19.30;15.70;;;14.40;99.90;;;;;;5047608;28;20420;-49
2021/07/01 07:21:27;;;;;;;19.77;16.37;;;14.50;99.90;;;;;;5041332;28;20464;-47
2021/07/01 07:23:55;;;;;;;22.00;16.17;;;14.50;99.90;;;;;;5040558;28;20416;-47
2021/07/01 07:26:23;;;;;;;20.37;16.93;;;14.50;99.90;;;;;;5046788;28;20738;-47
2021/07/01 07:28:52;;;;;;;19.23;15.90;;;14.50;99.90;;;;;;5047303;28;20459;-46
2021/07/01 07:31:41;;;;;;;19.43;15.07;;;14.50;99.90;;;;;;5046218;28;20803;-47
2021/07/01 07:34:07;;;;;;;20.30;15.77;;;14.50;99.90;;;;;;5055236;28;20436;-46
2021/07/01 07:36:34;;;;;;;17.60;14.13;;;14.60;99.90;;;;;;5056865;28;20496;-47
2021/07/01 07:39:00;;;;;;;19.10;15.87;;;14.50;99.90;;;;;;5040925;28;20190;-48
2021/07/01 07:41:26;;;;;;;19.90;14.37;;;14.50;99.90;;;;;;5046729;28;20904;-47
2021/07/01 07:43:53;;;;;;;15.07;13.47;;;14.50;99.90;;;;;;5044807;28;20524;-47
2021/07/01 07:46:21;;;;;;;17.30;13.30;;;14.50;99.90;;;;;;5048118;28;20514;-45
2021/07/01 07:48:48;;;;;;;14.73;12.80;;;14.60;99.90;;;;;;5032543;28;20432;-47
2021/07/01 07:51:17;;;;;;;15.10;13.20;;;14.50;99.90;;;;;;5042442;28;20462;-47
2021/07/01 07:53:51;;;;;;;16.50;12.47;;;14.50;99.90;;;;;;5037824;28;20428;-46
2021/07/01 07:56:24;;;;;;;13.60;12.00;;;14.50;99.90;;;;;;5045399;28;20456;-48
2021/07/01 07:58:53;;;;;;;14.70;11.50;;;14.50;99.90;;;;;;5046557;28;20420;-48
2021/07/01 08:01:21;;;;;;;13.13;11.37;;;14.50;99.90;;;;;;5046403;28;20431;-45
2021/07/01 08:03:50;;;;;;;15.40;11.27;;;14.50;99.90;;;;;;5044316;28;20926;-43
2021/07/01 08:06:16;;;;;;;15.30;11.33;;;14.60;99.90;;;;;;5044538;28;20428;-44
2021/07/01 08:08:43;;;;;;;17.20;12.67;;;14.60;99.90;;;;;;5037035;28;20606;-46
2021/07/01 08:11:10;;;;;;;14.47;12.37;;;14.60;99.90;;;;;;5046444;28;20197;-47
2021/07/01 08:13:38;;;;;;;16.70;12.77;;;14.50;99.90;;;;;;5045851;28;20438;-45
2021/07/01 08:16:05;;;;;;;15.57;12.07;;;14.50;99.90;;;;;;5046024;28;20467;-44
2021/07/01 08:18:40;;;;;;;17.27;13.60;;;14.50;99.90;;;;;;5046686;28;20428;-48
2021/07/01 08:21:08;;;;;;;15.40;12.60;;;14.50;99.90;;;;;;5046206;28;20523;-45
2021/07/01 08:23:35;;;;;;;17.53;12.70;;;14.50;99.90;;;;;;5034045;28;20521;-48
2021/07/01 08:26:01;;;;;;;17.80;13.80;;;14.50;99.90;;;;;;5045822;28;20436;-43
2021/07/01 08:28:29;;;;;;;17.77;14.00;;;14.50;99.90;;;;;;5062336;28;20867;-43
2021/07/01 08:30:58;;;;;;;19.20;15.30;;;14.50;99.90;;;;;;5065724;28;20435;-46
2021/07/01 08:33:33;;;;;;;20.60;16.50;;;14.50;99.90;;;;;;5065701;28;20907;-45
2021/07/01 08:36:00;;;;;;;19.00;15.93;;;14.50;99.90;;;;;;5065865;28;20880;-47
2021/07/01 08:38:26;;;;;;;20.07;15.67;;;14.50;99.90;;;;;;5037492;28;20777;-44
2021/07/01 08:41:00;;;;;;;17.27;13.87;;;14.60;99.90;;;;;;5045905;28;21231;-47
2021/07/01 08:43:58;;;;;;;17.67;14.87;;;14.60;99.90;;;;;;5044238;28;20189;-46
2021/07/01 08:46:29;;;;;;;21.27;17.00;;;14.60;99.90;;;;;;5045877;28;20424;-45
2021/07/01 08:49:08;;;;;;;23.17;14.53;;;14.50;99.90;;;;;;5044805;28;20439;-44
2021/07/01 08:51:36;;;;;;;23.27;15.93;;;14.50;99.90;;;;;;5044151;28;20432;-45
2021/07/01 08:54:23;;;;;;;19.40;15.63;;;14.50;99.90;;;;;;5038529;28;20464;-45
2021/07/01 08:56:49;;;;;;;22.03;16.60;;;14.50;99.90;;;;;;5044842;28;20472;-44
2021/07/01 08:59:18;;;;;;;24.73;16.40;;;14.50;99.90;;;;;;5046022;28;20526;-46
2021/07/01 09:01:57;;;;;;;19.03;15.30;;;14.50;99.90;;;;;;5045803;28;20435;-44
2021/07/01 09:04:33;;;;;;;18.13;14.80;;;14.50;99.90;;;;;;5045381;28;20424;-46
2021/07/01 09:07:01;;;;;;;18.20;13.63;;;14.50;99.90;;;;;;5041072;28;20536;-45
2021/07/01 09:09:36;;;;;;;17.47;15.17;;;14.50;99.90;;;;;;5025516;28;20436;-47
2021/07/01 09:12:07;;;;;;;19.00;14.67;;;14.50;99.90;;;;;;5039586;28;20416;-46
2021/07/01 09:14:35;;;;;;;23.53;16.83;;;14.60;99.90;;;;;;5044967;28;20416;-44
2021/07/01 09:17:07;;;;;;;19.43;15.60;;;14.60;99.90;;;;;;5045833;28;20468;-48
2021/07/01 09:19:33;;;;;;;17.17;15.13;;;14.60;99.90;;;;;;5045878;28;20459;-47
2021/07/01 09:22:00;;;;;;;20.47;14.60;;;14.60;99.90;;;;;;5042902;28;20429;-43
2021/07/01 09:24:28;;;;;;;17.00;14.53;;;14.50;99.90;;;;;;5034913;28;20192;-44
2021/07/01 09:26:56;;;;;;;18.90;14.00;;;14.60;99.90;;;;;;5044043;28;20853;-48
2021/07/01 09:29:24;;;;;;;17.80;14.23;;;14.60;99.90;;;;;;5055852;28;20742;-44
2021/07/01 09:31:50;;;;;;;18.57;13.90;;;14.60;99.90;;;;;;5055350;28;20423;-45
2021/07/01 09:34:17;;;;;;;20.93;14.10;;;14.50;99.90;;;;;;5065081;28;20884;-46
2021/07/01 09:36:44;;;;;;;19.80;15.03;;;14.50;99.90;;;;;;5067034;28;20467;-42
2021/07/01 09:39:10;;;;;;;21.40;15.00;;;14.50;99.90;;;;;;5045070;28;20426;-46
2021/07/01 09:41:37;;;;;;;17.27;14.90;;;14.50;99.90;;;;;;5048154;28;20779;-42
2021/07/01 09:44:04;;;;;;;18.27;14.53;;;14.60;99.90;;;;;;5048703;28;20563;-43
2021/07/01 09:46:32;;;;;;;19.17;14.50;;;14.60;99.90;;;;;;5049195;28;20434;-45
2021/07/01 09:49:01;;;;;;;16.20;14.30;;;14.60;99.90;;;;;;5047795;28;20527;-42
2021/07/01 09:51:29;;;;;;;20.50;15.77;;;14.70;99.90;;;;;;5048924;28;20779;-44
2021/07/01 09:53:55;;;;;;;16.47;14.47;;;14.70;99.90;;;;;;5036063;28;20440;-48
2021/07/01 09:56:41;;;;;;;19.07;15.10;;;14.70;99.90;;;;;;5048250;28;20551;-44
2021/07/01 09:59:17;;;;;;;16.97;14.83;;;14.70;99.90;;;;;;5048997;28;20447;-46
2021/07/01 10:01:43;;;;;;;19.07;15.00;;;14.70;99.90;;;;;;5048612;28;20979;-45
2021/07/01 10:04:09;;;;;;;18.00;14.57;;;14.70;99.90;;;;;;5048348;28;20515;-45
2021/07/01 10:06:35;;;;;;;19.63;14.00;;;14.70;99.90;;;;;;5047086;28;20232;-44
2021/07/01 10:09:02;;;;;;;21.53;15.03;;;14.70;99.90;;;;;;5038396;28;20876;-45
2021/07/01 10:11:41;;;;;;;16.27;14.13;;;14.80;99.90;;;;;;5047124;28;20420;-46
2021/07/01 10:14:12;;;;;;;16.87;14.00;;;14.80;99.90;;;;;;5043593;28;20528;-44
2021/07/01 10:16:38;;;;;;;19.50;15.30;;;14.80;99.90;;;;;;5040366;28;20573;-44
2021/07/01 10:19:07;;;;;;;17.93;14.73;;;14.80;99.90;;;;;;5047284;28;20503;-43
2021/07/01 10:21:34;;;;;;;18.47;14.60;;;14.90;99.90;;;;;;5048234;28;20424;-44
2021/07/01 10:24:12;;;;;;;17.00;13.60;;;15.00;99.90;;;;;;5037071;28;20910;-46
2021/07/01 10:26:46;;;;;;;19.40;15.13;;;15.00;99.90;;;;;;5045701;28;20432;-44
2021/07/01 10:29:13;;;;;;;16.60;14.57;;;15.10;99.90;;;;;;5048578;28;20431;-46
2021/07/01 10:31:57;;;;;;;17.73;14.03;;;15.20;99.90;;;;;;5047959;28;20429;-48
2021/07/01 10:34:25;;;;;;;14.97;13.37;;;15.20;99.90;;;;;;5046676;28;20647;-45
2021/07/01 10:37:16;;;;;;;16.00;14.10;;;15.10;99.90;;;;;;5048090;28;20662;-42
2021/07/01 10:39:42;;;;;;;17.20;12.30;;;15.10;99.90;;;;;;5042056;28;20424;-43
2021/07/01 10:42:08;;;;;;;18.03;12.43;;;15.10;99.90;;;;;;5047999;28;20428;-43
2021/07/01 10:44:34;;;;;;;13.93;11.40;;;15.10;99.90;;;;;;5045980;28;20787;-43
2021/07/01 10:47:00;;;;;;;14.00;11.23;;;15.00;99.90;;;;;;5046637;28;20284;-44
2021/07/01 10:49:36;;;;;;;13.20;11.73;;;15.10;99.90;;;;;;5046136;28;20220;-44
2021/07/01 10:52:06;;;;;;;14.43;10.37;;;15.00;99.90;;;;;;5047868;28;20262;-46
2021/07/01 10:54:32;;;;;;;10.67;9.57;;;15.10;99.90;;;;;;5037255;28;20432;-44
2021/07/01 10:57:09;;;;;;;12.80;8.83;;;15.10;99.90;;;;;;5047753;28;20478;-43
2021/07/01 10:59:47;;;;;;;10.87;9.00;;;15.10;99.90;;;;;;5047583;28;20511;-46
2021/07/01 11:02:41;;;;;;;12.30;9.90;;;15.00;99.90;;;;;;5047608;28;20432;-42
2021/07/01 11:05:07;;;;;;;13.23;8.47;;;15.00;99.90;;;;;;5047592;28;20429;-45
2021/07/01 11:07:47;;;;;;;9.70;7.83;;;15.00;99.90;;;;;;5044119;28;20783;-44
2021/07/01 11:10:14;;;;;;;11.83;9.20;;;14.80;99.90;;;;;;5040036;28;20197;-42
2021/07/01 11:12:47;;;;;;;11.87;9.13;;;14.80;99.90;;;;;;5047635;28;20459;-42
2021/07/01 11:15:14;;;;;;;11.30;9.07;;;14.70;99.90;;;;;;5046948;28;20498;-46
2021/07/01 11:17:42;;;;;;;12.20;8.90;;;14.70;99.90;;;;;;5046341;28;20568;-42
2021/07/01 11:20:12;;;;;;;9.60;8.47;;;14.70;99.90;;;;;;5047204;28;20425;-44
2021/07/01 11:22:56;;;;;;;10.47;8.73;;;14.80;99.90;;;;;;5045016;28;20436;-43
2021/07/01 11:25:34;;;;;;;15.17;9.43;;;14.80;99.90;;;;;;5038415;28;20772;-45
2021/07/01 11:28:23;;;;;;;11.23;9.13;;;14.80;99.90;;;;;;5039258;28;20420;-46
2021/07/01 11:30:54;;;;;;;10.73;9.50;;;14.80;99.90;;;;;;5035565;28;20431;-44
2021/07/01 11:33:21;;;;;;;14.07;10.40;;;14.80;99.90;;;;;;5046454;28;20511;-46
2021/07/01 11:35:48;;;;;;;18.37;12.03;;;14.80;99.90;;;;;;5047060;28;20432;-45
2021/07/01 11:38:29;;;;;;;16.10;12.87;;;14.90;99.90;;;;;;5042606;28;20468;-46
2021/07/01 11:40:57;;;;;;;15.97;12.60;;;14.90;99.90;;;;;;5039536;28;20475;-44
2021/07/01 11:43:23;;;;;;;15.00;12.33;;;14.90;99.90;;;;;;5046084;28;20420;-46
2021/07/01 11:45:50;;;;;;;15.30;13.67;;;14.90;99.90;;;;;;5047142;28;20420;-50
2021/07/01 11:48:19;;;;;;;14.97;12.97;;;14.80;99.90;;;;;;5043877;28;20923;-45
2021/07/01 11:50:45;;;;;;;18.40;13.57;;;14.90;99.90;;;;;;5045417;28;20447;-44
2021/07/01 11:53:11;;;;;;;14.67;13.07;;;14.90;99.90;;;;;;5041572;28;20571;-45
2021/07/01 11:55:37;;;;;;;14.30;12.50;;;14.90;99.90;;;;;;5030640;28;20539;-45
2021/07/01 11:58:05;;;;;;;15.03;11.40;;;14.90;99.90;;;;;;5046447;28;20946;-44
2021/07/01 12:00:32;;;;;;;13.13;11.83;;;15.00;99.90;;;;;;5046029;28;20189;-46
2021/07/01 12:02:58;;;;;;;16.00;12.07;;;14.90;99.90;;;;;;5045928;28;20432;-49
2021/07/01 12:05:24;;;;;;;16.10;13.43;;;14.90;99.90;;;;;;5045259;28;20790;-45
2021/07/01 12:07:51;;;;;;;13.20;11.80;;;15.00;99.90;;;;;;5046284;28;20434;-49
2021/07/01 12:10:18;;;;;;;16.40;14.50;;;15.00;99.90;;;;;;5035646;28;20934;-43
2021/07/01 12:12:44;;;;;;;15.47;13.17;;;15.10;99.90;;;;;;5045990;28;20436;-47
2021/07/01 12:15:11;;;;;;;13.20;11.80;;;15.20;99.90;;;;;;5046047;28;20427;-43
2021/07/01 12:17:58;;;;;;;14.20;11.73;;;15.10;99.90;;;;;;5046274;28;20707;-46
2021/07/01 12:20:41;;;;;;;13.10;11.77;;;15.10;99.90;;;;;;5046442;28;20463;-46
2021/07/01 12:23:13;;;;;;;15.37;12.40;;;15.00;99.90;;;;;;5044716;28;20426;-47
2021/07/01 12:25:38;;;;;;;14.23;11.20;;;15.00;99.90;;;;;;5036041;28;20416;-48
2021/07/01 12:28:11;;;;;;;12.70;9.80;;;15.00;99.90;;;;;;5044986;28;20423;-48
2021/07/01 12:31:07;;;;;;;10.87;9.77;;;15.00;99.90;;;;;;5033552;28;20198;-45
2021/07/01 12:33:43;;;;;;;11.40;10.20;;;15.10;99.90;;;;;;5045529;28;20427;-46